모두
Gunnedah Hospital Airport YXGU 기상
There is no TAF data available at YXGU or any nearby airports.
There is no METAR data available at YXGU. Showing METAR data for YGDH (2 mi 북).
최근 GUH METAR 이력(YXGU에 대한 데이터 없음)
| Date | Time (AEST) | Flight Rules | Wind Dir. | Speed | Type | Height AGL (ft) | Visibility | Temp (°C) | Temp (°F) | Dew Point (°C) | Dew Point (°F) | Rel. Humid. | Pressure | Density Altitude | Remarks |
|---|---|---|---|---|---|---|---|---|---|---|---|---|---|---|---|
| 05-5월 | 08:00 | n/a | 260° | 3 kt | Missing | 16° | 60° | 15° | 59° | 94% | 1019 mb | 812 ft | |||
| 05-5월 | 07:00 | n/a | Calm | Missing | 16° | 60° | 16° | 60° | 100% | 1018 mb | 841 ft | ||||
| 05-5월 | 06:00 | n/a | 30° | 4 kt | Missing | 17° | 62° | 16° | 60° | 94% | 1018 mb | 961 ft | |||
| 05-5월 | 05:00 | n/a | 10° | 5 kt | Missing | 16° | 60° | 16° | 60° | 100% | 1018 mb | 841 ft | |||
| 05-5월 | 04:00 | n/a | 80° | 3 kt | Missing | 16° | 60° | 16° | 60° | 100% | 1018 mb | 841 ft | |||
| 05-5월 | 03:00 | n/a | 240° | 3 kt | Missing | 17° | 62° | 16° | 60° | 94% | 1017 mb | 991 ft | |||
| 05-5월 | 02:00 | n/a | 180° | 4 kt | Missing | 17° | 62° | 16° | 60° | 94% | 1017 mb | 991 ft | |||
| 05-5월 | 01:00 | n/a | 350° | 3 kt | Missing | 16° | 60° | 16° | 60° | 100% | 1018 mb | 841 ft | |||
| 05-5월 | 00:00 | n/a | Calm | Missing | 17° | 62° | 15° | 59° | 88% | 1017 mb | 991 ft | ||||
| 04-5월 | 23:00 | n/a | 200° | 7 kt | Missing | 17° | 62° | 15° | 59° | 88% | 1017 mb | 991 ft | |||
| 04-5월 | 22:00 | n/a | 190° | 5 kt | Missing | 17° | 62° | 15° | 59° | 88% | 1017 mb | 991 ft | |||
| 04-5월 | 21:00 | n/a | 150° | 6 kt | Missing | 17° | 62° | 15° | 59° | 88% | 1017 mb | 991 ft | |||
| 04-5월 | 20:00 | n/a | 130° | 6 kt | Missing | 17° | 62° | 15° | 59° | 88% | 1017 mb | 991 ft | |||
| 04-5월 | 19:00 | n/a | 130° | 8 kt | Missing | 17° | 62° | 15° | 59° | 88% | 1017 mb | 991 ft | |||
| 04-5월 | 18:00 | n/a | 130° | 8 kt | Missing | 18° | 64° | 14° | 57° | 77% | 1017 mb | 1,111 ft | |||
| 04-5월 | 17:00 | n/a | 120° | 5 kt | Missing | 20° | 68° | 14° | 57° | 68% | 1016 mb | 1,381 ft | |||
| 04-5월 | 16:00 | n/a | 220° | 6 kt | Missing | 20° | 68° | 14° | 57° | 68% | 1016 mb | 1,381 ft | |||
| 04-5월 | 15:00 | n/a | 280° | 6 kt | Missing | 25° | 77° | 11° | 51° | 41% | 1016 mb | 1,981 ft | |||
| 04-5월 | 14:00 | n/a | 310° | 6 kt | Missing | 25° | 77° | 11° | 51° | 41% | 1016 mb | 1,981 ft | |||
| 04-5월 | 13:00 | n/a | 320° | 5 kt | Missing | 24° | 75° | 11° | 51° | 44% | 1016 mb | 1,861 ft | |||
| 04-5월 | 12:00 | n/a | 280° | 6 kt | Missing | 24° | 75° | 11° | 51° | 44% | 1017 mb | 1,831 ft | |||
| 04-5월 | 11:00 | n/a | 250° | 5 kt | Missing | 23° | 73° | 11° | 51° | 47% | 1018 mb | 1,681 ft | |||
| 04-5월 | 10:00 | n/a | 200° | 4 kt | Missing | 21° | 69° | 11° | 51° | 53% | 1018 mb | 1,441 ft | |||
| 04-5월 | 09:00 | n/a | 140° | 5 kt | Missing | 21° | 69° | 12° | 53° | 56% | 1019 mb | 1,412 ft |
로그인
| 귀하의 브라우저는 지원되지 않습니다.. 브라우저를 업그레이드하세요 |
